createdAt,value
2022-08-01T18:20:05.253Z,1.40
2022-08-01T18:25:08.842Z,1.50
2022-08-01T18:30:11.669Z,1.60
2022-08-01T18:35:14.608Z,1.90
2022-08-01T18:40:22.759Z,2.00
2022-08-01T18:45:25.421Z,1.60
2022-08-01T18:50:27.808Z,1.90
2022-08-01T19:09:40.754Z,1.80
2022-08-01T19:14:46.066Z,1.90
2022-08-01T19:20:08.159Z,2.40
2022-08-01T19:25:10.259Z,2.10
2022-08-01T19:30:17.151Z,1.80
2022-08-01T19:35:21.948Z,2.10
2022-08-01T19:40:27.462Z,2.10
2022-08-01T19:45:33.293Z,1.90
2022-08-01T19:50:40.553Z,2.40
2022-08-01T19:55:43.507Z,2.50
2022-08-01T20:00:53.338Z,2.30
2022-08-01T20:05:56.507Z,2.40
2022-08-01T20:11:05.432Z,2.60
2022-08-01T20:16:19.431Z,2.70
2022-08-01T20:21:26.610Z,4.00
2022-08-01T20:26:33.927Z,2.70
2022-08-01T20:31:44.115Z,2.30
2022-08-01T20:36:48.085Z,2.80
2022-08-01T20:41:59.693Z,2.70
2022-08-01T20:47:13.639Z,2.80
2022-08-01T20:52:27.389Z,2.60
2022-08-01T21:03:01.115Z,2.50
2022-08-01T21:08:12.997Z,2.40
2022-08-01T21:18:33.785Z,2.60
2022-08-01T21:23:50.275Z,2.70
2022-08-01T21:28:55.257Z,2.40
2022-08-01T21:34:02.820Z,2.60
2022-08-01T21:39:07.015Z,2.60
2022-08-01T21:44:14.288Z,3.30
2022-08-01T21:49:16.732Z,3.20
2022-08-01T21:59:46.593Z,3.20
2022-08-01T22:04:58.981Z,2.90
2022-08-01T22:10:05.034Z,3.60
2022-08-01T22:15:08.374Z,3.50
2022-08-01T22:20:12.781Z,3.50
2022-08-01T22:25:16.356Z,3.50
2022-08-01T22:30:18.737Z,4.00
2022-08-01T22:35:21.202Z,3.90
2022-08-01T22:40:23.234Z,3.40
2022-08-01T22:45:41.721Z,3.70
2022-08-01T22:50:46.345Z,3.70
2022-08-01T22:55:59.007Z,4.10
2022-08-01T23:01:02.396Z,3.70
2022-08-01T23:06:22.226Z,4.10
2022-08-01T23:11:24.440Z,4.40
2022-08-01T23:16:28.740Z,4.20
2022-08-01T23:21:31.734Z,3.60
2022-08-01T23:26:35.958Z,4.10
2022-08-01T23:31:50.929Z,4.00
2022-08-01T23:37:00.005Z,4.20
2022-08-01T23:47:10.740Z,4.10
2022-08-01T23:52:20.589Z,3.80
2022-08-01T23:57:22.944Z,4.00
